Etusivu
METAR-TAF:

METAR-TAF

Lentoasemat :

Foz do Iguaçu, Paraná, Brasilia

Leveyspiiri: 25-31S, Pituuspiiri: 054-35W, korkeus merenpinnasta: 180 m

Tämänhetkinen sää

Tämä raportti tehtiin 23 minuuttia sitten, kello 15.00 UTC
Tuuli 6 kn idästä/kaakosta
Lämpötila 21°C
Kosteus 69%
Ilmanpaine 1023 hPa
Näkyvyys 10 km tai enemmän
ei pilviä alle 1500 m:ssä eikä cumulonimbus-pilviä

METAR: SBFI 201500Z 11006KT CAVOK 21/15 Q1023

Aika: 12:23 (15:23 UTC)

Sääennuste

Tämä raportti tehtiin 5 tuntia ja 53 minuuttia sitten, kello 09.30 UTC
Ennuste voimassa 20. päivästä klo 12 UTC - 21. päivään klo 12 UTC
Tuuli 4 kn kaakosta
Näkyvyys 10 km tai enemmän
ei pilviä alle 1500 m:ssä eikä cumulonimbus-pilviä
Tulossa
20. päivästä klo 12 UTC - 20. päivään klo 14 UTC
Tuuli 6 kn idästä
Tulossa
20. päivästä klo 22 UTC - 20. päivään klo 24 UTC
Tuuli 4 kn idästä

TAF: SBFI 200930Z 2012/2112 14004KT CAVOK TX26/2018Z TN13/2108Z BECMG 2012/2014 08006KT BECMG 2022/2024 10004KT RMK PER

Säähavainnot ja -ennusteet yli 4000 lentoasemalta (METAR- ja TAF-raportit).

Käytössä olevat sääasemat on merkitty karttaan keltaisilla ja punaisilla pisteillä.

Aseta hiiri pisteen päälle nähdäksesi sääaseman nimen.

Klikkaa sitten nähdäksesi säähavainnot ja -ennusteet.

Kartan vaihtaminen: klikkaa mustalla rastilla varustettuja vihreitä pisteitä, niin voit zoomata sisään; viivalla varustettua vihreää pistettä, niin voit zoomata ulos tai vihreitä nuolia, niin pääset viereisille kartoille.


METAR-TAF: